Lake Cable, Ohio
Current Conditions -  °F | °C
As of 12:51 PM on Friday 21 Nov 2014 (Local Time) from KCAK Reporting Station
Broken Clouds Broken Clouds  
Wind Chill: 17°   Ceiling: 3600
Heat Index: 25°   Visibility: 10mi
Dew Point: 10°   Wind: 7mph
Humidity: 53%   Direction: 240°WSW
Pressure: 30.46"   Gusts: NA
Location:  40.8509°N, 81.4472°W
Report Text: KCAK 211751Z 24006KT 10SM BKN036 M04/M12 A3046 RMK AO2 SLP332 60000 4/002 933003 T10391122 11039 21100 51010
Loading
Personal Weather Stations






























Interactive Weather Map New forecast layout! Learn more

10-Day Weather Forecast

Advertisements
Track Severe Weather on mobile